sensor_id;sensor_type;location;lat;lon;timestamp;pressure;altitude;pressure_sealevel;temperature;humidity
28665;BME280;15850;47.524;7.814;2023-08-21T00:02:16;98166.84;;;21.28;100.00
28665;BME280;15850;47.524;7.814;2023-08-21T00:04:42;98220.22;;;21.65;100.00
28665;BME280;15850;47.524;7.814;2023-08-21T00:07:08;98217.88;;;21.60;100.00
28665;BME280;15850;47.524;7.814;2023-08-21T00:09:34;98220.63;;;21.63;100.00
28665;BME280;15850;47.524;7.814;2023-08-21T00:12:00;98213.91;;;21.57;100.00
28665;BME280;15850;47.524;7.814;2023-08-21T00:14:25;97738.72;;;18.37;100.00
28665;BME280;15850;47.524;7.814;2023-08-21T00:16:51;97950.72;;;19.69;100.00
28665;BME280;15850;47.524;7.814;2023-08-21T00:19:17;97939.31;;;19.70;100.00
28665;BME280;15850;47.524;7.814;2023-08-21T00:21:42;98214.69;;;21.50;100.00
28665;BME280;15850;47.524;7.814;2023-08-21T00:24:07;98208.38;;;21.43;100.00
28665;BME280;15850;47.524;7.814;2023-08-21T00:26:34;98209.19;;;21.40;100.00
28665;BME280;15850;47.524;7.814;2023-08-21T00:29:00;98122.59;;;20.71;100.00
28665;BME280;15850;47.524;7.814;2023-08-21T00:31:25;98227.72;;;21.28;100.00
28665;BME280;15850;47.524;7.814;2023-08-21T00:33:51;98211.91;;;21.25;100.00
28665;BME280;15850;47.524;7.814;2023-08-21T00:36:16;97895.34;;;19.08;100.00
28665;BME280;15850;47.524;7.814;2023-08-21T00:38:42;98086.19;;;20.30;100.00
28665;BME280;15850;47.524;7.814;2023-08-21T00:41:07;98217.44;;;21.25;100.00
28665;BME280;15850;47.524;7.814;2023-08-21T00:43:34;98019.41;;;19.99;100.00
28665;BME280;15850;47.524;7.814;2023-08-21T00:46:00;98145.13;;;20.80;100.00
28665;BME280;15850;47.524;7.814;2023-08-21T00:48:26;97823.47;;;18.65;100.00
28665;BME280;15850;47.524;7.814;2023-08-21T00:50:52;98216.25;;;21.12;100.00
28665;BME280;15850;47.524;7.814;2023-08-21T00:53:18;98222.56;;;21.05;100.00
28665;BME280;15850;47.524;7.814;2023-08-21T00:55:43;98118.94;;;20.38;100.00
28665;BME280;15850;47.524;7.814;2023-08-21T00:58:10;98219.78;;;20.98;100.00
28665;BME280;15850;47.524;7.814;2023-08-21T01:00:38;98211.91;;;21.07;100.00
28665;BME280;15850;47.524;7.814;2023-08-21T01:03:04;97790.19;;;18.22;100.00
28665;BME280;15850;47.524;7.814;2023-08-21T01:05:29;98194.91;;;20.95;100.00
28665;BME280;15850;47.524;7.814;2023-08-21T01:07:59;98219.41;;;21.03;100.00
28665;BME280;15850;47.524;7.814;2023-08-21T01:13:34;98133.56;;;20.42;100.00
28665;BME280;15850;47.524;7.814;2023-08-21T01:16:06;98156.88;;;20.49;100.00
28665;BME280;15850;47.524;7.814;2023-08-21T01:18:33;98232.06;;;20.97;100.00
28665;BME280;15850;47.524;7.814;2023-08-21T01:21:02;98226.53;;;21.01;100.00
28665;BME280;15850;47.524;7.814;2023-08-21T01:23:31;98183.78;;;20.66;100.00
28665;BME280;15850;47.524;7.814;2023-08-21T01:25:56;98234.03;;;20.90;100.00
28665;BME280;15850;47.524;7.814;2023-08-21T01:28:22;98236.78;;;20.90;100.00
28665;BME280;15850;47.524;7.814;2023-08-21T01:30:49;98036.22;;;19.58;100.00
28665;BME280;15850;47.524;7.814;2023-08-21T01:33:19;98030.72;;;19.62;100.00
28665;BME280;15850;47.524;7.814;2023-08-21T01:35:46;97943.78;;;19.06;100.00
28665;BME280;15850;47.524;7.814;2023-08-21T01:38:12;98225.69;;;20.86;100.00
28665;BME280;15850;47.524;7.814;2023-08-21T01:40:39;98165.94;;;20.38;100.00
28665;BME280;15850;47.524;7.814;2023-08-21T01:43:05;97864.28;;;18.42;100.00
28665;BME280;15850;47.524;7.814;2023-08-21T01:45:30;98136.25;;;20.14;100.00
28665;BME280;15850;47.524;7.814;2023-08-21T01:47:56;98227.66;;;20.75;100.00
28665;BME280;15850;47.524;7.814;2023-08-21T01:50:21;98167.09;;;20.30;100.00
28665;BME280;15850;47.524;7.814;2023-08-21T01:52:47;98226.44;;;20.61;100.00
28665;BME280;15850;47.524;7.814;2023-08-21T01:55:13;97790.16;;;17.64;100.00
28665;BME280;15850;47.524;7.814;2023-08-21T01:57:41;97888.59;;;18.29;100.00
28665;BME280;15850;47.524;7.814;2023-08-21T02:00:07;98230.28;;;20.46;100.00
28665;BME280;15850;47.524;7.814;2023-08-21T02:02:41;98179.69;;;20.17;100.00
28665;BME280;15850;47.524;7.814;2023-08-21T02:05:07;98176.50;;;20.15;100.00
28665;BME280;15850;47.524;7.814;2023-08-21T02:07:32;98224.38;;;20.48;100.00
28665;BME280;15850;47.524;7.814;2023-08-21T02:09:58;98208.16;;;20.35;100.00
28665;BME280;15850;47.524;7.814;2023-08-21T02:12:23;97917.16;;;18.62;100.00
28665;BME280;15850;47.524;7.814;2023-08-21T02:14:50;98002.88;;;19.05;100.00
28665;BME280;15850;47.524;7.814;2023-08-21T02:17:16;98222.47;;;20.52;100.00
28665;BME280;15850;47.524;7.814;2023-08-21T02:19:42;98220.88;;;20.51;100.00
28665;BME280;15850;47.524;7.814;2023-08-21T02:22:07;97754.59;;;17.37;100.00
28665;BME280;15850;47.524;7.814;2023-08-21T02:24:33;98198.63;;;20.22;100.00
28665;BME280;15850;47.524;7.814;2023-08-21T02:26:58;98083.47;;;19.49;100.00
28665;BME280;15850;47.524;7.814;2023-08-21T02:29:24;98214.47;;;20.36;100.00
28665;BME280;15850;47.524;7.814;2023-08-21T02:31:51;97787.78;;;17.58;100.00
28665;BME280;15850;47.524;7.814;2023-08-21T02:34:16;97679.16;;;16.90;100.00
28665;BME280;15850;47.524;7.814;2023-08-21T02:36:45;98223.56;;;20.36;100.00
28665;BME280;15850;47.524;7.814;2023-08-21T02:39:11;98120.75;;;19.81;100.00
28665;BME280;15850;47.524;7.814;2023-08-21T02:41:36;97845.47;;;17.92;100.00
28665;BME280;15850;47.524;7.814;2023-08-21T02:44:02;98189.09;;;20.05;100.00
28665;BME280;15850;47.524;7.814;2023-08-21T02:46:27;98216.84;;;20.30;100.00
28665;BME280;15850;47.524;7.814;2023-08-21T02:48:54;98223.09;;;20.20;100.00
28665;BME280;15850;47.524;7.814;2023-08-21T02:51:20;97883.19;;;17.88;100.00
28665;BME280;15850;47.524;7.814;2023-08-21T02:53:45;97939.28;;;18.24;100.00
28665;BME280;15850;47.524;7.814;2023-08-21T02:56:11;98192.19;;;19.93;100.00
28665;BME280;15850;47.524;7.814;2023-08-21T02:58:37;98221.88;;;20.07;100.00
28665;BME280;15850;47.524;7.814;2023-08-21T03:01:02;98216.72;;;20.05;100.00
28665;BME280;15850;47.524;7.814;2023-08-21T03:03:28;97912.88;;;18.13;100.00
28665;BME280;15850;47.524;7.814;2023-08-21T03:05:55;97849.28;;;17.80;100.00
28665;BME280;15850;47.524;7.814;2023-08-21T03:08:20;98226.19;;;20.08;100.00
28665;BME280;15850;47.524;7.814;2023-08-21T03:10:46;98165.22;;;19.65;100.00
28665;BME280;15850;47.524;7.814;2023-08-21T03:13:11;98219.44;;;19.98;100.00
28665;BME280;15850;47.524;7.814;2023-08-21T03:15:37;98222.63;;;20.00;100.00
28665;BME280;15850;47.524;7.814;2023-08-21T03:18:03;97847.88;;;17.56;100.00
28665;BME280;15850;47.524;7.814;2023-08-21T03:20:29;97927.78;;;18.08;100.00
28665;BME280;15850;47.524;7.814;2023-08-21T03:22:57;98210.25;;;19.83;100.00
28665;BME280;15850;47.524;7.814;2023-08-21T03:25:23;98097.06;;;19.14;100.00
28665;BME280;15850;47.524;7.814;2023-08-21T03:27:50;97816.19;;;17.29;100.00
28665;BME280;15850;47.524;7.814;2023-08-21T03:30:15;98234.31;;;19.79;100.00
28665;BME280;15850;47.524;7.814;2023-08-21T03:32:41;97777.28;;;16.86;100.00
28665;BME280;15850;47.524;7.814;2023-08-21T03:35:07;97748.88;;;16.75;100.00
28665;BME280;15850;47.524;7.814;2023-08-21T03:37:34;98162.63;;;19.31;100.00
28665;BME280;15850;47.524;7.814;2023-08-21T03:40:03;98244.56;;;19.79;100.00
28665;BME280;15850;47.524;7.814;2023-08-21T03:42:30;98174.00;;;19.30;100.00
28665;BME280;15850;47.524;7.814;2023-08-21T03:44:56;98043.69;;;18.40;100.00
28665;BME280;15850;47.524;7.814;2023-08-21T03:47:21;98237.06;;;19.76;100.00
28665;BME280;15850;47.524;7.814;2023-08-21T03:49:58;98114.28;;;18.96;100.00
28665;BME280;15850;47.524;7.814;2023-08-21T03:52:24;98141.66;;;19.23;100.00
28665;BME280;15850;47.524;7.814;2023-08-21T03:54:50;98203.75;;;19.51;100.00
28665;BME280;15850;47.524;7.814;2023-08-21T03:57:17;98134.84;;;19.06;100.00
28665;BME280;15850;47.524;7.814;2023-08-21T03:59:42;98243.34;;;19.76;100.00
28665;BME280;15850;47.524;7.814;2023-08-21T04:02:08;98240.94;;;19.67;100.00
28665;BME280;15850;47.524;7.814;2023-08-21T04:04:33;98248.44;;;19.67;100.00
28665;BME280;15850;47.524;7.814;2023-08-21T04:06:59;98185.28;;;19.10;100.00
28665;BME280;15850;47.524;7.814;2023-08-21T04:09:24;98235.16;;;19.35;100.00
28665;BME280;15850;47.524;7.814;2023-08-21T04:11:50;98262.13;;;19.60;100.00
28665;BME280;15850;47.524;7.814;2023-08-21T04:14:17;98261.34;;;19.59;100.00
28665;BME280;15850;47.524;7.814;2023-08-21T04:16:42;97749.31;;;16.13;100.00
28665;BME280;15850;47.524;7.814;2023-08-21T04:19:08;97810.75;;;16.65;100.00
28665;BME280;15850;47.524;7.814;2023-08-21T04:21:33;98155.16;;;18.87;100.00
28665;BME280;15850;47.524;7.814;2023-08-21T04:23:59;98258.50;;;19.45;100.00
28665;BME280;15850;47.524;7.814;2023-08-21T04:26:25;98021.69;;;17.99;100.00
28665;BME280;15850;47.524;7.814;2023-08-21T04:28:50;98278.69;;;19.60;100.00
28665;BME280;15850;47.524;7.814;2023-08-21T04:31:17;98285.78;;;19.54;100.00
28665;BME280;15850;47.524;7.814;2023-08-21T04:33:46;98194.47;;;18.81;100.00
28665;BME280;15850;47.524;7.814;2023-08-21T04:36:14;98161.59;;;18.61;100.00
28665;BME280;15850;47.524;7.814;2023-08-21T04:38:40;98167.50;;;18.63;100.00
28665;BME280;15850;47.524;7.814;2023-08-21T04:41:06;97690.16;;;15.62;100.00
28665;BME280;15850;47.524;7.814;2023-08-21T04:43:32;98232.06;;;18.99;100.00
28665;BME280;15850;47.524;7.814;2023-08-21T04:45:57;98296.72;;;19.46;100.00
28665;BME280;15850;47.524;7.814;2023-08-21T04:48:25;98187.03;;;18.81;100.00
28665;BME280;15850;47.524;7.814;2023-08-21T04:50:51;98305.44;;;19.48;100.00
28665;BME280;15850;47.524;7.814;2023-08-21T04:53:17;97839.13;;;16.42;100.00
28665;BME280;15850;47.524;7.814;2023-08-21T04:55:42;98250.28;;;19.08;100.00
28665;BME280;15850;47.524;7.814;2023-08-21T04:58:09;98301.38;;;19.35;100.00
28665;BME280;15850;47.524;7.814;2023-08-21T05:00:35;98155.53;;;18.45;100.00
28665;BME280;15850;47.524;7.814;2023-08-21T05:03:01;97979.91;;;17.23;100.00
28665;BME280;15850;47.524;7.814;2023-08-21T05:05:28;98215.25;;;18.71;100.00
28665;BME280;15850;47.524;7.814;2023-08-21T05:07:53;98211.72;;;18.74;100.00
28665;BME280;15850;47.524;7.814;2023-08-21T05:10:19;98157.94;;;18.50;100.00
28665;BME280;15850;47.524;7.814;2023-08-21T05:12:45;98235.06;;;19.24;100.00
28665;BME280;15850;47.524;7.814;2023-08-21T05:15:10;98298.22;;;19.81;100.00
28665;BME280;15850;47.524;7.814;2023-08-21T05:17:36;98293.97;;;19.91;100.00
28665;BME280;15850;47.524;7.814;2023-08-21T05:20:02;98303.53;;;20.08;100.00
28665;BME280;15850;47.524;7.814;2023-08-21T05:22:29;98279.88;;;20.07;100.00
28665;BME280;15850;47.524;7.814;2023-08-21T05:24:55;98072.88;;;18.89;100.00
28665;BME280;15850;47.524;7.814;2023-08-21T05:27:21;98310.13;;;20.55;100.00
28665;BME280;15850;47.524;7.814;2023-08-21T05:29:46;98308.56;;;20.61;100.00
28665;BME280;15850;47.524;7.814;2023-08-21T05:32:12;98308.59;;;20.64;100.00
28665;BME280;15850;47.524;7.814;2023-08-21T05:34:38;98337.06;;;20.76;100.00
28665;BME280;15850;47.524;7.814;2023-08-21T05:37:03;98303.88;;;20.69;100.00
28665;BME280;15850;47.524;7.814;2023-08-21T05:39:31;97822.16;;;17.79;100.00
28665;BME280;15850;47.524;7.814;2023-08-21T05:41:57;98016.25;;;19.06;100.00
28665;BME280;15850;47.524;7.814;2023-08-21T05:44:22;98307.53;;;21.01;100.00
28665;BME280;15850;47.524;7.814;2023-08-21T05:46:48;98188.44;;;20.37;100.00
28665;BME280;15850;47.524;7.814;2023-08-21T05:49:14;98266.00;;;20.91;100.00
28665;BME280;15850;47.524;7.814;2023-08-21T05:51:40;98315.16;;;21.40;100.00
28665;BME280;15850;47.524;7.814;2023-08-21T05:54:07;98316.34;;;21.43;100.00
28665;BME280;15850;47.524;7.814;2023-08-21T05:56:35;98315.94;;;21.55;100.00
28665;BME280;15850;47.524;7.814;2023-08-21T05:59:00;97920.91;;;19.01;100.00
28665;BME280;15850;47.524;7.814;2023-08-21T06:01:26;98319.88;;;21.75;100.00
28665;BME280;15850;47.524;7.814;2023-08-21T06:03:51;98201.63;;;20.86;100.00
28665;BME280;15850;47.524;7.814;2023-08-21T06:06:36;98325.81;;;21.85;100.00
28665;BME280;15850;47.524;7.814;2023-08-21T06:09:01;98321.47;;;21.91;100.00
28665;BME280;15850;47.524;7.814;2023-08-21T06:11:27;98320.69;;;21.94;100.00
28665;BME280;15850;47.524;7.814;2023-08-21T06:13:54;98327.78;;;21.98;100.00
28665;BME280;15850;47.524;7.814;2023-08-21T06:16:19;98317.53;;;21.99;100.00
28665;BME280;15850;47.524;7.814;2023-08-21T06:18:47;98331.72;;;22.12;100.00
28665;BME280;15850;47.524;7.814;2023-08-21T06:21:12;98325.03;;;22.23;100.00
28665;BME280;15850;47.524;7.814;2023-08-21T06:23:38;98328.56;;;22.31;100.00
28665;BME280;15850;47.524;7.814;2023-08-21T06:26:04;98328.53;;;22.38;100.00
28665;BME280;15850;47.524;7.814;2023-08-21T06:28:29;98332.50;;;22.41;100.00
28665;BME280;15850;47.524;7.814;2023-08-21T06:30:57;98051.47;;;20.82;100.00
28665;BME280;15850;47.524;7.814;2023-08-21T06:33:23;98333.22;;;22.63;100.00
28665;BME280;15850;47.524;7.814;2023-08-21T06:35:48;98327.25;;;22.68;100.00
28665;BME280;15850;47.524;7.814;2023-08-21T06:38:15;98265.97;;;22.41;100.00
28665;BME280;15850;47.524;7.814;2023-08-21T06:40:41;97897.91;;;19.95;100.00
28665;BME280;15850;47.524;7.814;2023-08-21T06:43:06;98329.94;;;22.96;100.00
28665;BME280;15850;47.524;7.814;2023-08-21T06:45:33;97660.16;;;18.72;100.00
28665;BME280;15850;47.524;7.814;2023-08-21T06:48:03;98102.38;;;21.60;100.00
28665;BME280;15850;47.524;7.814;2023-08-21T06:50:29;98330.47;;;23.40;100.00
28665;BME280;15850;47.524;7.814;2023-08-21T06:52:55;97876.16;;;20.58;100.00
28665;BME280;15850;47.524;7.814;2023-08-21T06:55:21;97932.91;;;21.09;100.00
28665;BME280;15850;47.524;7.814;2023-08-21T06:57:46;98127.84;;;22.28;100.00
28665;BME280;15850;47.524;7.814;2023-08-21T07:00:13;98267.81;;;23.39;100.00
28665;BME280;15850;47.524;7.814;2023-08-21T07:02:38;97838.59;;;20.75;100.00
28665;BME280;15850;47.524;7.814;2023-08-21T07:05:06;98313.00;;;23.95;100.00
28665;BME280;15850;47.524;7.814;2023-08-21T07:07:31;98274.00;;;23.61;100.00
28665;BME280;15850;47.524;7.814;2023-08-21T07:09:57;98273.66;;;23.55;100.00
28665;BME280;15850;47.524;7.814;2023-08-21T07:12:22;98338.06;;;23.91;100.00
28665;BME280;15850;47.524;7.814;2023-08-21T07:14:48;98273.97;;;23.68;100.00
28665;BME280;15850;47.524;7.814;2023-08-21T07:17:14;98226.94;;;23.43;100.00
28665;BME280;15850;47.524;7.814;2023-08-21T07:19:39;97964.50;;;21.96;100.00
28665;BME280;15850;47.524;7.814;2023-08-21T07:22:06;97813.28;;;20.84;100.00
28665;BME280;15850;47.524;7.814;2023-08-21T07:24:32;98330.13;;;24.31;100.00
28665;BME280;15850;47.524;7.814;2023-08-21T07:26:57;98327.16;;;24.49;100.00
28665;BME280;15850;47.524;7.814;2023-08-21T07:29:23;98291.56;;;24.33;100.00
28665;BME280;15850;47.524;7.814;2023-08-21T07:31:48;98274.16;;;24.26;100.00
28665;BME280;15850;47.524;7.814;2023-08-21T07:34:14;98208.16;;;23.99;100.00
28665;BME280;15850;47.524;7.814;2023-08-21T07:36:39;98330.63;;;24.60;100.00
28665;BME280;15850;47.524;7.814;2023-08-21T07:39:06;98327.63;;;24.78;100.00
28665;BME280;15850;47.524;7.814;2023-08-21T07:41:32;98287.41;;;24.52;100.00
28665;BME280;15850;47.524;7.814;2023-08-21T07:43:57;98325.19;;;25.15;100.00
28665;BME280;15850;47.524;7.814;2023-08-21T07:46:23;98344.03;;;25.00;100.00
28665;BME280;15850;47.524;7.814;2023-08-21T07:48:49;98306.53;;;24.81;100.00
28665;BME280;15850;47.524;7.814;2023-08-21T07:51:15;98328.97;;;24.97;100.00
28665;BME280;15850;47.524;7.814;2023-08-21T07:53:41;98231.88;;;24.45;100.00
28665;BME280;15850;47.524;7.814;2023-08-21T07:56:08;98247.44;;;24.70;100.00
28665;BME280;15850;47.524;7.814;2023-08-21T07:58:33;98272.09;;;24.98;100.00
28665;BME280;15850;47.524;7.814;2023-08-21T08:00:59;98337.22;;;25.62;100.00
28665;BME280;15850;47.524;7.814;2023-08-21T08:03:24;97904.31;;;22.87;100.00
28665;BME280;15850;47.524;7.814;2023-08-21T08:05:50;98268.19;;;25.23;100.00
28665;BME280;15850;47.524;7.814;2023-08-21T08:08:16;98002.16;;;23.63;100.00
28665;BME280;15850;47.524;7.814;2023-08-21T08:10:41;98320.97;;;25.84;100.00
28665;BME280;15850;47.524;7.814;2023-08-21T08:13:08;98219.84;;;25.09;100.00
28665;BME280;15850;47.524;7.814;2023-08-21T08:15:34;98272.22;;;25.45;100.00
28665;BME280;15850;47.524;7.814;2023-08-21T08:18:00;98031.91;;;23.97;100.00
28665;BME280;15850;47.524;7.814;2023-08-21T08:20:25;98327.56;;;26.17;100.00
28665;BME280;15850;47.524;7.814;2023-08-21T08:22:51;98280.97;;;25.71;100.00
28665;BME280;15850;47.524;7.814;2023-08-21T08:25:16;98320.53;;;26.09;100.00
28665;BME280;15850;47.524;7.814;2023-08-21T08:27:42;98294.16;;;26.14;100.00
28665;BME280;15850;47.524;7.814;2023-08-21T08:30:10;97774.59;;;22.67;100.00
28665;BME280;15850;47.524;7.814;2023-08-21T08:32:36;98050.38;;;24.41;100.00
28665;BME280;15850;47.524;7.814;2023-08-21T08:35:02;98327.97;;;26.39;100.00
28665;BME280;15850;47.524;7.814;2023-08-21T08:37:27;97838.19;;;23.16;100.00
28665;BME280;15850;47.524;7.814;2023-08-21T08:39:53;98310.13;;;26.33;100.00
28665;BME280;15850;47.524;7.814;2023-08-21T08:42:18;98312.91;;;26.57;100.00
28665;BME280;15850;47.524;7.814;2023-08-21T08:44:44;98250.13;;;26.25;100.00
28665;BME280;15850;47.524;7.814;2023-08-21T08:47:11;98198.19;;;25.91;100.00
28665;BME280;15850;47.524;7.814;2023-08-21T08:49:37;98139.47;;;25.59;100.00
28665;BME280;15850;47.524;7.814;2023-08-21T08:52:03;98286.56;;;26.58;100.00
28665;BME280;15850;47.524;7.814;2023-08-21T08:54:29;98305.16;;;26.64;100.00
28665;BME280;15850;47.524;7.814;2023-08-21T08:56:55;98306.78;;;26.82;100.00
28665;BME280;15850;47.524;7.814;2023-08-21T08:59:20;98231.81;;;26.64;100.00
28665;BME280;15850;47.524;7.814;2023-08-21T09:01:46;98292.00;;;27.01;100.00
28665;BME280;15850;47.524;7.814;2023-08-21T09:04:13;98303.34;;;27.14;100.00
28665;BME280;15850;47.524;7.814;2023-08-21T09:06:38;98285.84;;;27.10;100.00
28665;BME280;15850;47.524;7.814;2023-08-21T09:09:04;98207.56;;;26.61;100.00
28665;BME280;15850;47.524;7.814;2023-08-21T09:11:32;98215.47;;;26.99;100.00
28665;BME280;15850;47.524;7.814;2023-08-21T09:13:58;98113.75;;;26.31;100.00
28665;BME280;15850;47.524;7.814;2023-08-21T09:16:25;98298.50;;;27.51;100.00
28665;BME280;15850;47.524;7.814;2023-08-21T09:18:52;98300.06;;;27.68;100.00
28665;BME280;15850;47.524;7.814;2023-08-21T09:21:19;97790.66;;;24.35;98.90
28665;BME280;15850;47.524;7.814;2023-08-21T09:23:45;98069.53;;;26.13;97.44
28665;BME280;15850;47.524;7.814;2023-08-21T09:26:11;98185.53;;;27.19;96.92
28665;BME280;15850;47.524;7.814;2023-08-21T09:28:37;98209.59;;;27.46;100.00
28665;BME280;15850;47.524;7.814;2023-08-21T09:31:03;98213.69;;;27.57;93.15
28665;BME280;15850;47.524;7.814;2023-08-21T09:33:28;98284.13;;;28.14;90.58
28665;BME280;15850;47.524;7.814;2023-08-21T09:35:55;98279.09;;;28.09;92.70
28665;BME280;15850;47.524;7.814;2023-08-21T09:38:22;98175.03;;;27.23;84.69
28665;BME280;15850;47.524;7.814;2023-08-21T09:40:52;98281.22;;;27.89;84.23
28665;BME280;15850;47.524;7.814;2023-08-21T09:43:18;98248.72;;;27.95;83.81
28665;BME280;15850;47.524;7.814;2023-08-21T09:45:47;97940.47;;;26.12;80.53
28665;BME280;15850;47.524;7.814;2023-08-21T09:48:27;98290.56;;;28.27;83.69
28665;BME280;15850;47.524;7.814;2023-08-21T09:50:53;97857.41;;;25.71;86.07
28665;BME280;15850;47.524;7.814;2023-08-21T09:53:26;97990.59;;;26.65;78.85
28665;BME280;15850;47.524;7.814;2023-08-21T09:59:08;97495.09;;;23.65;72.86
28665;BME280;15850;47.524;7.814;2023-08-21T10:04:40;98265.22;;;28.76;72.85
28665;BME280;15850;47.524;7.814;2023-08-21T10:07:20;98094.06;;;27.81;70.01
28665;BME280;15850;47.524;7.814;2023-08-21T10:14:03;98261.44;;;28.96;69.21
28665;BME280;15850;47.524;7.814;2023-08-21T10:16:56;98039.22;;;27.58;70.19
28665;BME280;15850;47.524;7.814;2023-08-21T10:23:31;98242.28;;;29.07;68.73
28665;BME280;15850;47.524;7.814;2023-08-21T10:26:28;98250.16;;;29.25;67.31
28665;BME280;15850;47.524;7.814;2023-08-21T10:29:00;97892.50;;;26.66;70.13
28665;BME280;15850;47.524;7.814;2023-08-21T10:31:27;98126.00;;;28.51;66.99
28665;BME280;15850;47.524;7.814;2023-08-21T10:33:53;98033.06;;;28.05;65.77
28665;BME280;15850;47.524;7.814;2023-08-21T10:36:36;98113.03;;;28.45;66.02
28665;BME280;15850;47.524;7.814;2023-08-21T10:39:18;98275.78;;;29.36;66.54
28665;BME280;15850;47.524;7.814;2023-08-21T10:42:21;97827.03;;;26.84;63.96
28665;BME280;15850;47.524;7.814;2023-08-21T10:45:28;97460.06;;;24.24;62.61
28665;BME280;15850;47.524;7.814;2023-08-21T10:48:14;98224.78;;;29.41;66.02
28665;BME280;15850;47.524;7.814;2023-08-21T10:50:57;97875.44;;;27.35;65.09
28665;BME280;15850;47.524;7.814;2023-08-21T10:53:23;98220.16;;;29.60;63.32
28665;BME280;15850;47.524;7.814;2023-08-21T10:55:52;97785.91;;;26.71;62.81
28665;BME280;15850;47.524;7.814;2023-08-21T10:58:20;98204.94;;;29.36;62.38
28665;BME280;15850;47.524;7.814;2023-08-21T11:00:45;98219.16;;;29.54;63.37
28665;BME280;15850;47.524;7.814;2023-08-21T11:03:11;97966.50;;;28.00;64.44
28665;BME280;15850;47.524;7.814;2023-08-21T11:05:37;97970.53;;;28.12;59.94
28665;BME280;15850;47.524;7.814;2023-08-21T11:08:03;97994.56;;;28.35;61.62
28665;BME280;15850;47.524;7.814;2023-08-21T11:10:31;98217.22;;;29.77;60.40
28665;BME280;15850;47.524;7.814;2023-08-21T11:12:57;97979.03;;;28.21;60.52
28665;BME280;15850;47.524;7.814;2023-08-21T11:15:26;98165.31;;;29.59;58.30
28665;BME280;15850;47.524;7.814;2023-08-21T11:18:03;98037.50;;;28.79;60.50
28665;BME280;15850;47.524;7.814;2023-08-21T11:21:13;98056.34;;;29.26;60.85
28665;BME280;15850;47.524;7.814;2023-08-21T11:23:40;98206.50;;;30.63;58.55
28665;BME280;15850;47.524;7.814;2023-08-21T11:26:10;98203.09;;;30.46;56.31
28665;BME280;15850;47.524;7.814;2023-08-21T11:28:37;98111.97;;;29.85;55.02
28665;BME280;15850;47.524;7.814;2023-08-21T11:31:06;97733.28;;;27.37;55.31
28665;BME280;15850;47.524;7.814;2023-08-21T11:33:37;97843.66;;;28.06;54.66
28665;BME280;15850;47.524;7.814;2023-08-21T11:36:03;98218.78;;;30.34;59.56
28665;BME280;15850;47.524;7.814;2023-08-21T11:38:29;97753.59;;;27.51;56.52
28665;BME280;15850;47.524;7.814;2023-08-21T11:54:33;98184.16;;;30.59;53.47
28665;BME280;15850;47.524;7.814;2023-08-21T11:59:34;97414.63;;;25.64;51.84
28665;BME280;15850;47.524;7.814;2023-08-21T12:02:00;97946.56;;;29.41;51.50
28665;BME280;15850;47.524;7.814;2023-08-21T12:04:25;98060.06;;;30.42;51.44
28665;BME280;15850;47.524;7.814;2023-08-21T12:06:52;98187.31;;;31.02;49.84
28665;BME280;15850;47.524;7.814;2023-08-21T12:09:17;97716.19;;;28.18;50.13
28665;BME280;15850;47.524;7.814;2023-08-21T12:20:36;97420.47;;;26.68;51.81
28665;BME280;15850;47.524;7.814;2023-08-21T12:23:02;97823.53;;;29.43;51.42
28665;BME280;15850;47.524;7.814;2023-08-21T12:25:28;97526.13;;;27.39;51.09
28665;BME280;15850;47.524;7.814;2023-08-21T12:27:54;97423.38;;;26.64;50.71
28665;BME280;15850;47.524;7.814;2023-08-21T12:44:12;98149.78;;;32.28;48.65
28665;BME280;15850;47.524;7.814;2023-08-21T12:46:38;98010.63;;;31.22;48.37
28665;BME280;15850;47.524;7.814;2023-08-21T12:49:03;97864.28;;;30.06;47.77
28665;BME280;15850;47.524;7.814;2023-08-21T12:51:29;98144.56;;;31.93;47.80
28665;BME280;15850;47.524;7.814;2023-08-21T12:53:56;98173.13;;;32.28;48.44
28665;BME280;15850;47.524;7.814;2023-08-21T12:56:37;98151.06;;;32.45;47.43
28665;BME280;15850;47.524;7.814;2023-08-21T12:59:10;98132.16;;;32.18;46.28
28665;BME280;15850;47.524;7.814;2023-08-21T13:02:03;98155.22;;;32.59;44.67
28665;BME280;15850;47.524;7.814;2023-08-21T13:04:29;97592.16;;;29.05;45.39
28665;BME280;15850;47.524;7.814;2023-08-21T13:06:54;98114.13;;;32.34;44.46
28665;BME280;15850;47.524;7.814;2023-08-21T13:09:20;97973.50;;;31.46;43.41
28665;BME280;15850;47.524;7.814;2023-08-21T13:11:45;98125.38;;;32.86;43.30
28665;BME280;15850;47.524;7.814;2023-08-21T13:14:11;98136.47;;;32.98;42.53
28665;BME280;15850;47.524;7.814;2023-08-21T13:16:37;98094.56;;;32.82;42.96
28665;BME280;15850;47.524;7.814;2023-08-21T13:19:04;97904.31;;;31.39;42.40
28665;BME280;15850;47.524;7.814;2023-08-21T13:21:37;97912.63;;;31.76;42.06
28665;BME280;15850;47.524;7.814;2023-08-21T13:24:03;97931.03;;;31.86;42.51
28665;BME280;15850;47.524;7.814;2023-08-21T13:26:29;98065.06;;;32.68;42.46
28665;BME280;15850;47.524;7.814;2023-08-21T13:28:55;97908.50;;;32.28;41.18
28665;BME280;15850;47.524;7.814;2023-08-21T13:31:20;97711.59;;;32.64;38.99
28665;BME280;15850;47.524;7.814;2023-08-21T13:33:54;97744.22;;;33.85;37.96
28665;BME280;15850;47.524;7.814;2023-08-21T13:36:21;97431.97;;;32.43;36.43
28665;BME280;15850;47.524;7.814;2023-08-21T13:38:47;97782.38;;;35.84;36.51
28665;BME280;15850;47.524;7.814;2023-08-21T13:41:12;97824.50;;;36.84;35.15
28665;BME280;15850;47.524;7.814;2023-08-21T13:43:38;98042.00;;;37.27;36.62
28665;BME280;15850;47.524;7.814;2023-08-21T13:46:04;98098.94;;;36.11;38.70
28665;BME280;15850;47.524;7.814;2023-08-21T13:48:30;98106.41;;;37.75;37.69
28665;BME280;15850;47.524;7.814;2023-08-21T13:50:55;98049.25;;;39.19;34.23